sensor_id;sensor_type;location;lat;lon;timestamp;pressure;altitude;pressure_sealevel;temperature;humidity
41703;BME280;861;48.808;9.006;2022-09-03T00:00:18;96712.91;;;19.55;58.48
41703;BME280;861;48.808;9.006;2022-09-03T00:03:30;96708.31;;;19.61;59.19
41703;BME280;861;48.808;9.006;2022-09-03T00:06:34;96707.31;;;19.46;58.68
41703;BME280;861;48.808;9.006;2022-09-03T00:09:33;96711.16;;;19.48;58.64
41703;BME280;861;48.808;9.006;2022-09-03T00:12:31;96701.66;;;19.49;58.80
41703;BME280;861;48.808;9.006;2022-09-03T00:15:17;96704.84;;;19.48;59.71
41703;BME280;861;48.808;9.006;2022-09-03T00:18:04;96700.91;;;19.49;59.85
41703;BME280;861;48.808;9.006;2022-09-03T00:20:45;96706.41;;;19.49;58.82
41703;BME280;861;48.808;9.006;2022-09-03T00:23:26;96697.97;;;19.52;60.12
41703;BME280;861;48.808;9.006;2022-09-03T00:28:56;96696.00;;;19.53;60.31
41703;BME280;861;48.808;9.006;2022-09-03T00:32:02;96697.41;;;19.57;59.98
41703;BME280;861;48.808;9.006;2022-09-03T00:34:45;96690.50;;;19.62;60.07
41703;BME280;861;48.808;9.006;2022-09-03T00:37:16;96701.25;;;19.60;60.22
41703;BME280;861;48.808;9.006;2022-09-03T00:39:42;96696.50;;;19.60;59.56
41703;BME280;861;48.808;9.006;2022-09-03T00:42:50;96688.63;;;19.50;60.21
41703;BME280;861;48.808;9.006;2022-09-03T00:46:04;96680.75;;;19.39;61.21
41703;BME280;861;48.808;9.006;2022-09-03T00:49:21;96686.56;;;19.41;60.92
41703;BME280;861;48.808;9.006;2022-09-03T00:55:54;96687.16;;;19.36;61.18
41703;BME280;861;48.808;9.006;2022-09-03T01:01:42;96694.47;;;19.30;62.25
41703;BME280;861;48.808;9.006;2022-09-03T01:07:39;96700.44;;;19.07;61.93
41703;BME280;861;48.808;9.006;2022-09-03T01:10:33;96696.75;;;19.10;62.31
41703;BME280;861;48.808;9.006;2022-09-03T01:13:20;96697.59;;;19.20;63.48
41703;BME280;861;48.808;9.006;2022-09-03T01:16:31;96696.56;;;19.26;62.24
41703;BME280;861;48.808;9.006;2022-09-03T01:26:49;96701.31;;;19.04;62.66
41703;BME280;861;48.808;9.006;2022-09-03T01:39:11;96699.75;;;18.82;63.85
41703;BME280;861;48.808;9.006;2022-09-03T01:46:01;96695.13;;;18.79;64.17
41703;BME280;861;48.808;9.006;2022-09-03T01:49:05;96696.75;;;18.89;64.39
41703;BME280;861;48.808;9.006;2022-09-03T01:52:32;96703.81;;;18.90;64.35
41703;BME280;861;48.808;9.006;2022-09-03T01:56:10;96695.22;;;18.88;64.29
41703;BME280;861;48.808;9.006;2022-09-03T01:59:25;96699.19;;;18.87;64.17
41703;BME280;861;48.808;9.006;2022-09-03T02:02:13;96696.66;;;18.92;63.98
41703;BME280;861;48.808;9.006;2022-09-03T02:05:10;96709.53;;;18.95;64.24
41703;BME280;861;48.808;9.006;2022-09-03T02:08:01;96704.06;;;18.83;65.75
41703;BME280;861;48.808;9.006;2022-09-03T02:10:54;96706.06;;;18.82;65.69
41703;BME280;861;48.808;9.006;2022-09-03T02:13:49;96702.94;;;18.59;65.84
41703;BME280;861;48.808;9.006;2022-09-03T02:16:29;96703.81;;;18.56;65.47
41703;BME280;861;48.808;9.006;2022-09-03T02:19:10;96711.31;;;18.55;64.59
41703;BME280;861;48.808;9.006;2022-09-03T02:21:52;96707.66;;;18.58;65.25
41703;BME280;861;48.808;9.006;2022-09-03T02:24:23;96711.41;;;18.64;64.27
41703;BME280;861;48.808;9.006;2022-09-03T02:26:53;96708.97;;;18.66;64.55
41703;BME280;861;48.808;9.006;2022-09-03T02:29:21;96710.53;;;18.67;64.74
41703;BME280;861;48.808;9.006;2022-09-03T02:31:54;96707.63;;;18.71;63.73
41703;BME280;861;48.808;9.006;2022-09-03T02:34:22;96715.28;;;18.67;64.90
41703;BME280;861;48.808;9.006;2022-09-03T02:36:49;96709.31;;;18.68;64.58
41703;BME280;861;48.808;9.006;2022-09-03T02:39:16;96709.81;;;18.76;65.66
41703;BME280;861;48.808;9.006;2022-09-03T02:41:42;96704.91;;;18.58;65.79
41703;BME280;861;48.808;9.006;2022-09-03T02:47:02;96696.44;;;18.53;65.16
41703;BME280;861;48.808;9.006;2022-09-03T02:49:32;96697.59;;;18.64;64.93
41703;BME280;861;48.808;9.006;2022-09-03T02:52:08;96690.94;;;18.53;65.21
41703;BME280;861;48.808;9.006;2022-09-03T02:54:38;96684.06;;;18.57;65.37
41703;BME280;861;48.808;9.006;2022-09-03T02:57:09;96696.59;;;18.71;65.45
41703;BME280;861;48.808;9.006;2022-09-03T02:59:37;96706.22;;;18.66;66.84
41703;BME280;861;48.808;9.006;2022-09-03T03:02:05;96697.09;;;18.57;67.52
41703;BME280;861;48.808;9.006;2022-09-03T03:04:32;96696.06;;;18.63;66.58
41703;BME280;861;48.808;9.006;2022-09-03T03:06:59;96699.22;;;18.53;66.24
41703;BME280;861;48.808;9.006;2022-09-03T03:09:25;96706.03;;;18.61;66.11
41703;BME280;861;48.808;9.006;2022-09-03T03:11:51;96701.38;;;18.70;65.40
41703;BME280;861;48.808;9.006;2022-09-03T03:14:20;96702.81;;;18.62;65.89
41703;BME280;861;48.808;9.006;2022-09-03T03:16:49;96710.25;;;18.53;65.80
41703;BME280;861;48.808;9.006;2022-09-03T03:19:19;96706.94;;;18.45;66.30
41703;BME280;861;48.808;9.006;2022-09-03T03:21:45;96708.69;;;18.52;66.56
41703;BME280;861;48.808;9.006;2022-09-03T03:24:12;96712.53;;;18.54;67.20
41703;BME280;861;48.808;9.006;2022-09-03T03:26:38;96713.53;;;18.60;66.64
41703;BME280;861;48.808;9.006;2022-09-03T03:29:04;96704.94;;;18.46;67.03
41703;BME280;861;48.808;9.006;2022-09-03T03:31:32;96704.84;;;18.49;67.45
41703;BME280;861;48.808;9.006;2022-09-03T03:34:02;96701.00;;;18.47;67.03
41703;BME280;861;48.808;9.006;2022-09-03T03:36:32;96695.03;;;18.48;67.31
41703;BME280;861;48.808;9.006;2022-09-03T03:39:00;96703.59;;;18.50;67.25
41703;BME280;861;48.808;9.006;2022-09-03T03:41:37;96702.06;;;18.49;66.71
41703;BME280;861;48.808;9.006;2022-09-03T03:44:07;96714.34;;;18.48;67.23
41703;BME280;861;48.808;9.006;2022-09-03T03:46:40;96700.53;;;18.48;66.75
41703;BME280;861;48.808;9.006;2022-09-03T03:49:08;96709.47;;;18.52;67.12
41703;BME280;861;48.808;9.006;2022-09-03T03:51:37;96713.88;;;18.50;67.58
41703;BME280;861;48.808;9.006;2022-09-03T03:54:05;96712.03;;;18.47;67.38
41703;BME280;861;48.808;9.006;2022-09-03T03:56:33;96710.00;;;18.34;67.75
41703;BME280;861;48.808;9.006;2022-09-03T03:59:00;96710.72;;;18.39;67.71
41703;BME280;861;48.808;9.006;2022-09-03T04:01:28;96713.66;;;18.44;67.49
41703;BME280;861;48.808;9.006;2022-09-03T04:03:57;96705.72;;;18.46;68.08
41703;BME280;861;48.808;9.006;2022-09-03T04:06:27;96717.19;;;18.32;68.59
41703;BME280;861;48.808;9.006;2022-09-03T04:08:54;96720.41;;;18.18;68.49
41703;BME280;861;48.808;9.006;2022-09-03T04:11:24;96719.97;;;18.19;69.15
41703;BME280;861;48.808;9.006;2022-09-03T04:13:52;96725.56;;;18.28;69.02
41703;BME280;861;48.808;9.006;2022-09-03T04:16:24;96712.88;;;18.31;68.09
41703;BME280;861;48.808;9.006;2022-09-03T04:18:55;96715.66;;;18.18;68.36
41703;BME280;861;48.808;9.006;2022-09-03T04:21:27;96717.22;;;18.07;68.69
41703;BME280;861;48.808;9.006;2022-09-03T04:23:57;96719.00;;;18.01;69.24
41703;BME280;861;48.808;9.006;2022-09-03T04:26:31;96710.16;;;18.06;69.47
41703;BME280;861;48.808;9.006;2022-09-03T04:29:08;96706.94;;;18.20;69.12
41703;BME280;861;48.808;9.006;2022-09-03T04:31:37;96704.63;;;18.18;69.23
41703;BME280;861;48.808;9.006;2022-09-03T04:34:04;96705.41;;;18.19;68.89
41703;BME280;861;48.808;9.006;2022-09-03T04:36:31;96708.72;;;18.14;69.03
41703;BME280;861;48.808;9.006;2022-09-03T04:39:00;96706.19;;;18.07;69.58
41703;BME280;861;48.808;9.006;2022-09-03T04:41:30;96697.25;;;18.15;69.05
41703;BME280;861;48.808;9.006;2022-09-03T04:43:59;96706.31;;;18.03;69.34
41703;BME280;861;48.808;9.006;2022-09-03T04:46:28;96714.03;;;17.96;69.81
41703;BME280;861;48.808;9.006;2022-09-03T04:48:58;96719.53;;;17.96;69.50
41703;BME280;861;48.808;9.006;2022-09-03T04:51:27;96709.50;;;17.89;69.58
41703;BME280;861;48.808;9.006;2022-09-03T04:54:00;96707.97;;;17.88;69.76
41703;BME280;861;48.808;9.006;2022-09-03T04:56:32;96701.44;;;18.07;69.57
41703;BME280;861;48.808;9.006;2022-09-03T04:59:06;96712.69;;;18.13;68.91
41703;BME280;861;48.808;9.006;2022-09-03T05:01:39;96710.28;;;18.15;69.02
41703;BME280;861;48.808;9.006;2022-09-03T05:04:07;96711.72;;;18.07;70.16
41703;BME280;861;48.808;9.006;2022-09-03T05:06:35;96717.66;;;17.93;70.88
41703;BME280;861;48.808;9.006;2022-09-03T05:09:04;96717.00;;;18.01;70.92
41703;BME280;861;48.808;9.006;2022-09-03T05:11:32;96716.34;;;17.97;71.19
41703;BME280;861;48.808;9.006;2022-09-03T05:13:59;96719.88;;;17.98;72.66
41703;BME280;861;48.808;9.006;2022-09-03T05:16:28;96722.94;;;17.87;72.81
41703;BME280;861;48.808;9.006;2022-09-03T05:18:58;96715.03;;;17.77;73.21
41703;BME280;861;48.808;9.006;2022-09-03T05:21:27;96715.03;;;17.77;73.88
41703;BME280;861;48.808;9.006;2022-09-03T05:23:54;96718.41;;;17.68;74.65
41703;BME280;861;48.808;9.006;2022-09-03T05:26:32;96717.09;;;17.73;74.80
41703;BME280;861;48.808;9.006;2022-09-03T05:29:06;96717.00;;;17.89;74.61
41703;BME280;861;48.808;9.006;2022-09-03T05:31:37;96715.56;;;17.97;75.08
41703;BME280;861;48.808;9.006;2022-09-03T05:34:05;96714.91;;;18.05;75.90
41703;BME280;861;48.808;9.006;2022-09-03T05:36:36;96726.13;;;18.11;75.65
41703;BME280;861;48.808;9.006;2022-09-03T05:39:05;96727.13;;;18.17;75.58
41703;BME280;861;48.808;9.006;2022-09-03T05:41:32;96733.97;;;18.12;76.17
41703;BME280;861;48.808;9.006;2022-09-03T05:43:59;96723.91;;;18.31;76.25
41703;BME280;861;48.808;9.006;2022-09-03T05:46:30;96723.06;;;18.47;75.28
41703;BME280;861;48.808;9.006;2022-09-03T05:49:01;96729.66;;;18.49;75.83
41703;BME280;861;48.808;9.006;2022-09-03T05:51:30;96736.25;;;18.52;75.71
41703;BME280;861;48.808;9.006;2022-09-03T05:53:58;96732.63;;;18.55;75.69
41703;BME280;861;48.808;9.006;2022-09-03T05:56:28;96738.19;;;18.76;75.18
41703;BME280;861;48.808;9.006;2022-09-03T05:58:59;96736.06;;;18.80;75.14
41703;BME280;861;48.808;9.006;2022-09-03T06:01:34;96740.84;;;18.80;74.72
41703;BME280;861;48.808;9.006;2022-09-03T06:04:06;96737.09;;;18.74;75.15
41703;BME280;861;48.808;9.006;2022-09-03T06:06:39;96743.25;;;18.78;74.83
41703;BME280;861;48.808;9.006;2022-09-03T06:09:14;96739.50;;;18.84;75.06
41703;BME280;861;48.808;9.006;2022-09-03T06:11:45;96734.81;;;18.94;74.81
41703;BME280;861;48.808;9.006;2022-09-03T06:14:14;96745.19;;;18.90;75.75
41703;BME280;861;48.808;9.006;2022-09-03T06:16:48;96742.66;;;18.95;75.49
41703;BME280;861;48.808;9.006;2022-09-03T06:19:16;96743.00;;;18.85;76.92
41703;BME280;861;48.808;9.006;2022-09-03T06:21:44;96747.78;;;18.84;76.54
41703;BME280;861;48.808;9.006;2022-09-03T06:24:17;96750.19;;;18.82;77.28
41703;BME280;861;48.808;9.006;2022-09-03T06:26:45;96750.84;;;18.86;76.63
41703;BME280;861;48.808;9.006;2022-09-03T06:29:12;96749.53;;;18.91;76.58
41703;BME280;861;48.808;9.006;2022-09-03T06:31:40;96754.44;;;18.96;76.61
41703;BME280;861;48.808;9.006;2022-09-03T06:34:06;96746.84;;;19.00;76.45
41703;BME280;861;48.808;9.006;2022-09-03T06:36:33;96747.69;;;19.09;76.18
41703;BME280;861;48.808;9.006;2022-09-03T06:38:59;96753.31;;;19.06;76.94
41703;BME280;861;48.808;9.006;2022-09-03T06:41:30;96758.38;;;19.07;77.00
41703;BME280;861;48.808;9.006;2022-09-03T06:44:06;96756.59;;;19.13;76.36
41703;BME280;861;48.808;9.006;2022-09-03T06:46:39;96755.06;;;19.12;76.49
41703;BME280;861;48.808;9.006;2022-09-03T06:49:10;96757.50;;;19.10;76.99
41703;BME280;861;48.808;9.006;2022-09-03T06:51:38;96754.59;;;19.14;76.69
41703;BME280;861;48.808;9.006;2022-09-03T06:54:10;96753.25;;;19.18;76.07
41703;BME280;861;48.808;9.006;2022-09-03T06:56:39;96752.00;;;19.32;75.64
41703;BME280;861;48.808;9.006;2022-09-03T06:59:11;96753.13;;;19.34;75.86
41703;BME280;861;48.808;9.006;2022-09-03T07:01:42;96749.94;;;19.45;75.40
41703;BME280;861;48.808;9.006;2022-09-03T07:04:09;96751.22;;;19.53;75.63
41703;BME280;861;48.808;9.006;2022-09-03T07:06:39;96754.78;;;19.53;75.32
41703;BME280;861;48.808;9.006;2022-09-03T07:09:10;96755.66;;;19.72;74.56
41703;BME280;861;48.808;9.006;2022-09-03T07:11:39;96754.50;;;19.82;74.85
41703;BME280;861;48.808;9.006;2022-09-03T07:14:12;96758.81;;;19.92;74.17
41703;BME280;861;48.808;9.006;2022-09-03T07:16:39;96761.53;;;19.83;75.81
41703;BME280;861;48.808;9.006;2022-09-03T07:19:07;96756.97;;;19.89;74.46
41703;BME280;861;48.808;9.006;2022-09-03T07:21:36;96753.81;;;20.00;73.66
41703;BME280;861;48.808;9.006;2022-09-03T07:24:04;96754.25;;;19.98;74.34
41703;BME280;861;48.808;9.006;2022-09-03T07:26:39;96756.16;;;20.10;73.69
41703;BME280;861;48.808;9.006;2022-09-03T07:29:11;96762.84;;;20.22;74.17
41703;BME280;861;48.808;9.006;2022-09-03T07:31:41;96756.59;;;20.39;73.72
41703;BME280;861;48.808;9.006;2022-09-03T07:34:12;96759.34;;;20.39;72.91
41703;BME280;861;48.808;9.006;2022-09-03T07:36:46;96759.06;;;20.46;72.49
41703;BME280;861;48.808;9.006;2022-09-03T07:39:17;96755.00;;;20.69;71.46
41703;BME280;861;48.808;9.006;2022-09-03T07:41:45;96755.03;;;20.96;69.83
41703;BME280;861;48.808;9.006;2022-09-03T07:44:14;96763.53;;;21.29;68.84
41703;BME280;861;48.808;9.006;2022-09-03T07:46:44;96764.91;;;21.06;69.71
41703;BME280;861;48.808;9.006;2022-09-03T07:49:12;96763.19;;;20.99;70.37
41703;BME280;861;48.808;9.006;2022-09-03T07:51:39;96770.72;;;20.99;71.28
41703;BME280;861;48.808;9.006;2022-09-03T07:54:09;96774.72;;;20.98;70.38
41703;BME280;861;48.808;9.006;2022-09-03T07:56:38;96777.03;;;20.99;70.64
41703;BME280;861;48.808;9.006;2022-09-03T07:59:06;96776.72;;;20.97;71.43
41703;BME280;861;48.808;9.006;2022-09-03T08:01:35;96773.31;;;20.93;70.36
41703;BME280;861;48.808;9.006;2022-09-03T08:04:03;96770.28;;;21.00;71.25
41703;BME280;861;48.808;9.006;2022-09-03T08:06:34;96780.59;;;21.18;70.66
41703;BME280;861;48.808;9.006;2022-09-03T08:09:06;96773.97;;;21.24;70.70
41703;BME280;861;48.808;9.006;2022-09-03T08:11:41;96778.44;;;21.40;69.90
41703;BME280;861;48.808;9.006;2022-09-03T08:14:12;96788.44;;;21.47;68.84
41703;BME280;861;48.808;9.006;2022-09-03T08:16:44;96786.13;;;21.45;68.76
41703;BME280;861;48.808;9.006;2022-09-03T08:19:16;96796.31;;;21.30;69.58
41703;BME280;861;48.808;9.006;2022-09-03T08:21:44;96797.69;;;21.35;69.90
41703;BME280;861;48.808;9.006;2022-09-03T08:24:15;96795.06;;;21.49;68.50
41703;BME280;861;48.808;9.006;2022-09-03T08:26:43;96797.69;;;21.44;68.63
41703;BME280;861;48.808;9.006;2022-09-03T08:29:10;96805.50;;;21.54;67.91
41703;BME280;861;48.808;9.006;2022-09-03T08:31:36;96806.44;;;21.51;68.09
41703;BME280;861;48.808;9.006;2022-09-03T08:34:06;96802.28;;;21.65;67.35
41703;BME280;861;48.808;9.006;2022-09-03T08:36:37;96811.38;;;21.74;66.48
41703;BME280;861;48.808;9.006;2022-09-03T08:39:09;96804.91;;;21.68;66.38
41703;BME280;861;48.808;9.006;2022-09-03T08:44:49;96806.75;;;21.62;66.85
41703;BME280;861;48.808;9.006;2022-09-03T08:48:02;96805.06;;;21.47;67.02
41703;BME280;861;48.808;9.006;2022-09-03T08:50:50;96816.75;;;21.42;67.54
41703;BME280;861;48.808;9.006;2022-09-03T08:53:54;96828.94;;;21.44;66.92
41703;BME280;861;48.808;9.006;2022-09-03T08:56:35;96822.91;;;21.64;63.46
41703;BME280;861;48.808;9.006;2022-09-03T08:59:04;96820.91;;;21.64;62.95
41703;BME280;861;48.808;9.006;2022-09-03T09:05:04;96835.38;;;21.23;66.23
41703;BME280;861;48.808;9.006;2022-09-03T09:14:51;96829.38;;;21.70;64.74
41703;BME280;861;48.808;9.006;2022-09-03T09:21:01;96839.72;;;22.38;61.58
41703;BME280;861;48.808;9.006;2022-09-03T09:23:48;96841.47;;;22.17;62.80
41703;BME280;861;48.808;9.006;2022-09-03T09:26:20;96839.03;;;22.19;62.25
41703;BME280;861;48.808;9.006;2022-09-03T09:29:03;96831.66;;;22.07;63.83
41703;BME280;861;48.808;9.006;2022-09-03T09:31:37;96838.50;;;22.39;61.22
41703;BME280;861;48.808;9.006;2022-09-03T09:34:08;96828.00;;;22.43;61.36
41703;BME280;861;48.808;9.006;2022-09-03T09:37:03;96820.38;;;22.61;62.06
41703;BME280;861;48.808;9.006;2022-09-03T09:39:33;96824.50;;;22.75;60.76
41703;BME280;861;48.808;9.006;2022-09-03T09:42:10;96830.31;;;22.44;61.89
41703;BME280;861;48.808;9.006;2022-09-03T09:44:42;96823.28;;;22.25;62.52
41703;BME280;861;48.808;9.006;2022-09-03T09:47:37;96817.38;;;22.41;61.52
41703;BME280;861;48.808;9.006;2022-09-03T09:50:19;96816.78;;;22.37;61.76
41703;BME280;861;48.808;9.006;2022-09-03T09:52:47;96825.09;;;22.37;62.38
41703;BME280;861;48.808;9.006;2022-09-03T09:55:19;96825.72;;;22.32;63.69
41703;BME280;861;48.808;9.006;2022-09-03T09:58:03;96833.97;;;22.50;63.63
41703;BME280;861;48.808;9.006;2022-09-03T10:00:35;96836.81;;;23.07;59.84
41703;BME280;861;48.808;9.006;2022-09-03T10:03:10;96837.81;;;23.18;59.74
41703;BME280;861;48.808;9.006;2022-09-03T10:05:39;96832.38;;;23.00;60.04
41703;BME280;861;48.808;9.006;2022-09-03T10:08:20;96830.06;;;22.99;59.88
41703;BME280;861;48.808;9.006;2022-09-03T10:10:51;96825.50;;;22.87;62.21
41703;BME280;861;48.808;9.006;2022-09-03T10:13:29;96824.38;;;23.17;60.84
41703;BME280;861;48.808;9.006;2022-09-03T10:16:35;96817.31;;;23.39;58.48
41703;BME280;861;48.808;9.006;2022-09-03T10:26:09;96825.56;;;23.01;60.26
41703;BME280;861;48.808;9.006;2022-09-03T10:28:50;96824.53;;;23.22;59.00
41703;BME280;861;48.808;9.006;2022-09-03T10:35:28;96812.56;;;23.69;60.20
41703;BME280;861;48.808;9.006;2022-09-03T10:38:30;96813.22;;;24.17;58.51
41703;BME280;861;48.808;9.006;2022-09-03T10:41:45;96813.69;;;24.30;59.17
41703;BME280;861;48.808;9.006;2022-09-03T10:51:10;96802.69;;;24.06;57.67
41703;BME280;861;48.808;9.006;2022-09-03T11:00:14;96791.25;;;24.19;59.13
41703;BME280;861;48.808;9.006;2022-09-03T11:03:27;96790.06;;;24.40;57.86
41703;BME280;861;48.808;9.006;2022-09-03T11:06:29;96784.59;;;24.45;58.26
41703;BME280;861;48.808;9.006;2022-09-03T11:09:28;96778.69;;;24.58;56.42
41703;BME280;861;48.808;9.006;2022-09-03T11:12:30;96780.13;;;24.68;57.41
41703;BME280;861;48.808;9.006;2022-09-03T11:15:16;96785.00;;;24.73;57.54
41703;BME280;861;48.808;9.006;2022-09-03T11:18:02;96786.28;;;24.72;58.30
41703;BME280;861;48.808;9.006;2022-09-03T11:20:40;96775.03;;;24.66;58.48
41703;BME280;861;48.808;9.006;2022-09-03T11:23:11;96773.69;;;24.76;56.91
41703;BME280;861;48.808;9.006;2022-09-03T11:25:59;96775.63;;;24.70;57.67
41703;BME280;861;48.808;9.006;2022-09-03T11:32:04;96779.69;;;24.40;57.65
41703;BME280;861;48.808;9.006;2022-09-03T11:34:53;96779.22;;;24.42;57.60
41703;BME280;861;48.808;9.006;2022-09-03T11:37:29;96779.75;;;24.46;57.50
41703;BME280;861;48.808;9.006;2022-09-03T11:40:17;96775.47;;;24.30;58.86
41703;BME280;861;48.808;9.006;2022-09-03T11:42:46;96761.88;;;24.17;57.48
41703;BME280;861;48.808;9.006;2022-09-03T11:45:34;96765.13;;;24.16;58.25
41703;BME280;861;48.808;9.006;2022-09-03T11:48:38;96764.00;;;24.08;59.13
41703;BME280;861;48.808;9.006;2022-09-03T11:56:41;96780.97;;;23.81;60.39
41703;BME280;861;48.808;9.006;2022-09-03T12:02:27;96792.28;;;23.77;59.33
41703;BME280;861;48.808;9.006;2022-09-03T12:12:31;96786.59;;;23.57;61.18
41703;BME280;861;48.808;9.006;2022-09-03T12:16:21;96797.09;;;23.39;61.73
41703;BME280;861;48.808;9.006;2022-09-03T12:19:12;96803.41;;;23.39;63.19
41703;BME280;861;48.808;9.006;2022-09-03T12:21:52;96815.31;;;23.40;64.48
41703;BME280;861;48.808;9.006;2022-09-03T12:24:20;96826.31;;;23.34;63.98
41703;BME280;861;48.808;9.006;2022-09-03T12:26:48;96847.38;;;22.94;67.42
41703;BME280;861;48.808;9.006;2022-09-03T12:29:28;96857.66;;;22.28;68.16
41703;BME280;861;48.808;9.006;2022-09-03T12:32:12;96859.09;;;21.60;70.61
41703;BME280;861;48.808;9.006;2022-09-03T12:34:38;96881.88;;;20.49;71.10
41703;BME280;861;48.808;9.006;2022-09-03T12:37:21;96885.28;;;20.22;72.70
41703;BME280;861;48.808;9.006;2022-09-03T12:39:55;96892.38;;;19.67;74.50
41703;BME280;861;48.808;9.006;2022-09-03T12:42:32;96883.69;;;19.56;75.68
41703;BME280;861;48.808;9.006;2022-09-03T12:45:08;96879.53;;;19.73;74.83
41703;BME280;861;48.808;9.006;2022-09-03T12:47:42;96863.69;;;19.87;77.22
41703;BME280;861;48.808;9.006;2022-09-03T12:50:22;96862.56;;;19.62;77.15
41703;BME280;861;48.808;9.006;2022-09-03T12:53:03;96845.53;;;19.64;78.19
41703;BME280;861;48.808;9.006;2022-09-03T12:55:50;96851.66;;;19.81;77.89
41703;BME280;861;48.808;9.006;2022-09-03T12:58:54;96854.69;;;20.17;77.71
41703;BME280;861;48.808;9.006;2022-09-03T13:01:34;96848.47;;;20.34;77.07
41703;BME280;861;48.808;9.006;2022-09-03T13:04:24;96843.41;;;20.33;77.64
41703;BME280;861;48.808;9.006;2022-09-03T13:07:30;96846.56;;;20.53;76.94
41703;BME280;861;48.808;9.006;2022-09-03T13:10:28;96846.81;;;20.46;77.90
41703;BME280;861;48.808;9.006;2022-09-03T13:13:16;96840.44;;;20.58;76.17
41703;BME280;861;48.808;9.006;2022-09-03T13:22:11;96845.53;;;21.98;76.92
41703;BME280;861;48.808;9.006;2022-09-03T13:25:21;96848.75;;;22.15;78.40
41703;BME280;861;48.808;9.006;2022-09-03T13:28:54;96847.84;;;22.00;71.36
41703;BME280;861;48.808;9.006;2022-09-03T13:31:55;96840.28;;;22.00;77.35
41703;BME280;861;48.808;9.006;2022-09-03T13:34:45;96839.06;;;22.01;77.65
41703;BME280;861;48.808;9.006;2022-09-03T13:37:51;96834.00;;;21.82;74.55
41703;BME280;861;48.808;9.006;2022-09-03T13:40:57;96832.63;;;21.68;77.31
41703;BME280;861;48.808;9.006;2022-09-03T13:43:51;96838.94;;;21.60;77.63
41703;BME280;861;48.808;9.006;2022-09-03T13:46:38;96835.09;;;21.93;76.59
41703;BME280;861;48.808;9.006;2022-09-03T13:50:03;96830.09;;;22.15;77.92
41703;BME280;861;48.808;9.006;2022-09-03T13:53:07;96820.56;;;22.49;79.85
41703;BME280;861;48.808;9.006;2022-09-03T13:55:59;96823.81;;;22.89;77.50
41703;BME280;861;48.808;9.006;2022-09-03T13:58:52;96820.66;;;22.96;68.98
41703;BME280;861;48.808;9.006;2022-09-03T14:07:53;96818.06;;;22.69;75.65
41703;BME280;861;48.808;9.006;2022-09-03T14:10:58;96809.06;;;22.74;70.92
41703;BME280;861;48.808;9.006;2022-09-03T14:20:38;96816.91;;;22.01;75.71
41703;BME280;861;48.808;9.006;2022-09-03T14:27:00;96819.38;;;21.45;77.11
41703;BME280;861;48.808;9.006;2022-09-03T14:29:34;96817.69;;;21.48;77.89
41703;BME280;861;48.808;9.006;2022-09-03T14:32:36;96818.47;;;21.75;77.27
41703;BME280;861;48.808;9.006;2022-09-03T14:38:30;96828.44;;;22.09;77.60
41703;BME280;861;48.808;9.006;2022-09-03T14:42:00;96826.28;;;22.87;76.25
41703;BME280;861;48.808;9.006;2022-09-03T14:44:49;96825.03;;;23.59;71.78
41703;BME280;861;48.808;9.006;2022-09-03T14:54:57;96830.59;;;24.41;69.57
41703;BME280;861;48.808;9.006;2022-09-03T15:01:10;96822.38;;;24.66;66.78
41703;BME280;861;48.808;9.006;2022-09-03T15:04:20;96823.06;;;24.61;67.50
41703;BME280;861;48.808;9.006;2022-09-03T15:10:37;96810.34;;;23.96;68.79
41703;BME280;861;48.808;9.006;2022-09-03T15:13:27;96821.63;;;24.51;65.91
41703;BME280;861;48.808;9.006;2022-09-03T15:25:05;96838.91;;;24.55;64.69
41703;BME280;861;48.808;9.006;2022-09-03T15:31:01;96827.03;;;24.26;67.05
41703;BME280;861;48.808;9.006;2022-09-03T15:34:36;96827.69;;;24.35;66.59
41703;BME280;861;48.808;9.006;2022-09-03T15:37:33;96829.91;;;24.31;67.03
41703;BME280;861;48.808;9.006;2022-09-03T15:40:32;96838.94;;;24.26;66.62
41703;BME280;861;48.808;9.006;2022-09-03T15:43:47;96843.28;;;24.13;66.68
41703;BME280;861;48.808;9.006;2022-09-03T15:49:57;96844.31;;;24.00;68.65
41703;BME280;861;48.808;9.006;2022-09-03T15:52:57;96848.63;;;24.01;67.86
41703;BME280;861;48.808;9.006;2022-09-03T15:55:47;96844.91;;;24.04;69.43
41703;BME280;861;48.808;9.006;2022-09-03T16:01:43;96845.84;;;24.01;68.15
41703;BME280;861;48.808;9.006;2022-09-03T16:10:19;96845.88;;;23.92;68.13
41703;BME280;861;48.808;9.006;2022-09-03T16:13:36;96852.78;;;23.82;69.55
41703;BME280;861;48.808;9.006;2022-09-03T16:16:38;96850.28;;;23.84;68.90
41703;BME280;861;48.808;9.006;2022-09-03T16:22:30;96848.38;;;23.76;68.69
41703;BME280;861;48.808;9.006;2022-09-03T16:25:45;96840.78;;;23.62;69.18
41703;BME280;861;48.808;9.006;2022-09-03T16:28:51;96840.25;;;23.49;70.16
41703;BME280;861;48.808;9.006;2022-09-03T16:32:09;96838.81;;;23.53;71.79
41703;BME280;861;48.808;9.006;2022-09-03T16:35:26;96838.56;;;23.66;68.34
41703;BME280;861;48.808;9.006;2022-09-03T16:38:27;96845.22;;;23.45;69.15
41703;BME280;861;48.808;9.006;2022-09-03T16:41:49;96842.09;;;23.28;70.23
41703;BME280;861;48.808;9.006;2022-09-03T16:48:23;96848.44;;;23.20;73.01
41703;BME280;861;48.808;9.006;2022-09-03T16:51:26;96846.53;;;23.35;71.49
41703;BME280;861;48.808;9.006;2022-09-03T16:57:34;96842.09;;;23.28;73.20
41703;BME280;861;48.808;9.006;2022-09-03T17:00:16;96839.56;;;23.39;72.16
41703;BME280;861;48.808;9.006;2022-09-03T17:03:38;96841.69;;;23.44;71.11
41703;BME280;861;48.808;9.006;2022-09-03T17:06:29;96850.19;;;23.41;71.49
41703;BME280;861;48.808;9.006;2022-09-03T17:20:04;96845.84;;;22.93;74.69
41703;BME280;861;48.808;9.006;2022-09-03T17:26:37;96856.03;;;22.96;74.24
41703;BME280;861;48.808;9.006;2022-09-03T17:36:00;96862.81;;;22.62;76.34
41703;BME280;861;48.808;9.006;2022-09-03T17:39:21;96867.00;;;22.57;75.99
41703;BME280;861;48.808;9.006;2022-09-03T17:45:58;96873.66;;;22.42;76.04
41703;BME280;861;48.808;9.006;2022-09-03T17:48:54;96885.09;;;22.26;76.60
41703;BME280;861;48.808;9.006;2022-09-03T17:55:39;96890.47;;;22.20;76.75
41703;BME280;861;48.808;9.006;2022-09-03T17:58:48;96891.59;;;22.14;77.11